Time;durP1;ratioP1;P1;durP2;ratioP2;P2;SDS_P1;SDS_P2;PMS_P1;PMS_P2;Temp;Humidity;BMP_temperature;BMP_pressure;BME280_temperature;BME280_humidity;BME280_pressure;Samples;Min_cycle;Max_cycle;Signal;HPM_P1;HPM_P2
2024/03/20 00:02:47;;;;;;;;;;;;;;;6.09;100.00;95970.19;10485859;28;2753;-69
2024/03/20 00:07:49;;;;;;;;;;;;;;;6.05;100.00;95963.75;10489369;28;2933;-68
2024/03/20 00:12:51;;;;;;;;;;;;;;;6.00;100.00;95971.66;10488895;28;2860;-66
2024/03/20 00:17:53;;;;;;;;;;;;;;;5.90;100.00;95969.56;10490242;28;2774;-69
2024/03/20 00:22:55;;;;;;;;;;;;;;;5.89;100.00;95966.09;10495292;28;2891;-70
2024/03/20 00:27:57;;;;;;;;;;;;;;;5.85;100.00;95962.28;10488802;28;2823;-68
2024/03/20 00:32:59;;;;;;;;;;;;;;;5.81;100.00;95969.13;10496663;28;2802;-71
2024/03/20 00:38:00;;;;;;;;;;;;;;;5.72;100.00;95970.56;10491581;28;2850;-69
2024/03/20 00:43:02;;;;;;;;;;;;;;;5.64;100.00;95968.28;10496948;28;2837;-68
2024/03/20 00:48:04;;;;;;;;;;;;;;;5.51;100.00;95972.03;10498224;28;2728;-68
2024/03/20 00:53:05;;;;;;;;;;;;;;;5.45;100.00;95959.63;10502852;28;3016;-67
2024/03/20 00:58:09;;;;;;;;;;;;;;;5.47;100.00;95962.06;10495197;28;2884;-67
2024/03/20 01:03:11;;;;;;;;;;;;;;;5.40;100.00;95965.66;10501225;28;2896;-67
2024/03/20 01:08:14;;;;;;;;;;;;;;;5.42;100.00;95966.25;10495611;28;2885;-71
2024/03/20 01:13:17;;;;;;;;;;;;;;;5.36;100.00;95964.53;10496512;28;2884;-69
2024/03/20 01:18:18;;;;;;;;;;;;;;;5.39;100.00;95972.06;10494810;28;2627;-69
2024/03/20 01:23:20;;;;;;;;;;;;;;;5.41;100.00;95964.66;10500531;28;2906;-66
2024/03/20 01:28:23;;;;;;;;;;;;;;;5.41;100.00;95955.84;10496727;28;2838;-69
2024/03/20 01:33:25;;;;;;;;;;;;;;;5.38;100.00;95953.63;10491782;28;2882;-68
2024/03/20 01:38:27;;;;;;;;;;;;;;;5.36;100.00;95948.53;10493059;28;2901;-68
2024/03/20 01:43:29;;;;;;;;;;;;;;;5.37;100.00;95947.50;10496180;28;2836;-68
2024/03/20 01:48:31;;;;;;;;;;;;;;;5.27;100.00;95944.63;10481675;28;2962;-69
2024/03/20 01:53:32;;;;;;;;;;;;;;;5.24;100.00;95936.28;10499913;28;2611;-68
2024/03/20 01:58:34;;;;;;;;;;;;;;;5.18;100.00;95943.38;10511250;27;2754;-69
2024/03/20 02:03:35;;;;;;;;;;;;;;;5.28;100.00;95943.59;10495054;28;2844;-65
2024/03/20 02:08:37;;;;;;;;;;;;;;;5.22;100.00;95944.53;10492175;28;2876;-67
2024/03/20 02:13:39;;;;;;;;;;;;;;;5.28;100.00;95946.25;10489352;28;2788;-67
2024/03/20 02:18:40;;;;;;;;;;;;;;;5.20;100.00;95935.13;10491413;28;2773;-69
2024/03/20 02:23:42;;;;;;;;;;;;;;;5.12;100.00;95939.78;10488683;28;2754;-67
2024/03/20 02:28:43;;;;;;;;;;;;;;;5.06;100.00;95950.56;10489821;28;3029;-67
2024/03/20 02:33:45;;;;;;;;;;;;;;;5.02;100.00;95939.56;10490825;28;2796;-67
2024/03/20 02:38:47;;;;;;;;;;;;;;;4.98;100.00;95940.28;10491024;28;2924;-68
2024/03/20 02:43:48;;;;;;;;;;;;;;;4.92;100.00;95938.56;10475532;28;2818;-66
2024/03/20 02:48:50;;;;;;;;;;;;;;;4.77;100.00;95942.50;10478729;28;2756;-68
2024/03/20 02:53:52;;;;;;;;;;;;;;;4.74;100.00;95942.97;10493908;28;2677;-69
2024/03/20 02:58:54;;;;;;;;;;;;;;;4.76;100.00;95934.72;10497568;28;2840;-71
2024/03/20 03:03:55;;;;;;;;;;;;;;;4.67;100.00;95942.28;10490471;28;2764;-68
2024/03/20 03:08:57;;;;;;;;;;;;;;;4.65;100.00;95943.56;10488975;28;2824;-68
2024/03/20 03:13:59;;;;;;;;;;;;;;;4.56;100.00;95945.75;10489134;28;2805;-67
2024/03/20 03:19:01;;;;;;;;;;;;;;;4.49;100.00;95943.19;10491867;28;2855;-67
2024/03/20 03:24:03;;;;;;;;;;;;;;;4.51;100.00;95949.09;10487507;28;2856;-68
2024/03/20 03:29:05;;;;;;;;;;;;;;;4.58;100.00;95951.63;10491793;28;2887;-67
2024/03/20 03:34:07;;;;;;;;;;;;;;;4.61;100.00;95954.66;10496231;28;2996;-69
2024/03/20 03:39:10;;;;;;;;;;;;;;;4.61;100.00;95953.84;10476357;28;2829;-70
2024/03/20 03:44:12;;;;;;;;;;;;;;;4.54;100.00;95963.81;10494628;28;2857;-68
2024/03/20 03:49:14;;;;;;;;;;;;;;;4.54;100.00;95956.63;10474051;28;2734;-68
2024/03/20 03:54:15;;;;;;;;;;;;;;;4.48;100.00;95965.53;10491119;28;2851;-68
2024/03/20 03:59:17;;;;;;;;;;;;;;;4.50;100.00;95966.09;10485358;28;2930;-67
2024/03/20 04:04:18;;;;;;;;;;;;;;;4.51;100.00;95969.56;10487777;28;2827;-67
2024/03/20 04:09:20;;;;;;;;;;;;;;;4.51;100.00;95972.25;10489234;28;2782;-67
2024/03/20 04:14:22;;;;;;;;;;;;;;;4.52;100.00;95972.03;10500180;28;2856;-68
2024/03/20 04:19:24;;;;;;;;;;;;;;;4.35;100.00;95981.72;10503944;28;2870;-66
2024/03/20 04:24:25;;;;;;;;;;;;;;;4.30;100.00;95977.06;10504322;28;2700;-70
2024/03/20 04:29:27;;;;;;;;;;;;;;;4.18;100.00;95972.78;10500943;28;2785;-70
2024/03/20 04:34:28;;;;;;;;;;;;;;;4.17;100.00;95974.63;10510991;28;2901;-67
2024/03/20 04:39:30;;;;;;;;;;;;;;;4.19;100.00;95983.19;10505593;28;2673;-67
2024/03/20 04:44:32;;;;;;;;;;;;;;;4.16;100.00;95978.34;10505924;28;2873;-68
2024/03/20 04:49:34;;;;;;;;;;;;;;;4.15;100.00;95987.34;10507008;28;2863;-70
2024/03/20 04:54:35;;;;;;;;;;;;;;;4.09;100.00;95990.94;10485860;28;2825;-66
2024/03/20 04:59:37;;;;;;;;;;;;;;;4.03;100.00;95978.53;10504085;28;2859;-67
2024/03/20 05:04:38;;;;;;;;;;;;;;;3.99;100.00;95980.00;10506603;28;2793;-68
2024/03/20 05:09:40;;;;;;;;;;;;;;;4.05;100.00;95989.75;10503622;28;2838;-67
2024/03/20 05:14:41;;;;;;;;;;;;;;;4.09;100.00;95985.59;10507542;28;2847;-69
2024/03/20 05:19:43;;;;;;;;;;;;;;;4.18;100.00;95975.44;10513878;28;2850;-72
2024/03/20 05:24:44;;;;;;;;;;;;;;;4.21;100.00;95980.31;10497668;28;2863;-73
2024/03/20 05:29:46;;;;;;;;;;;;;;;4.20;100.00;95978.66;10498111;28;2906;-68
2024/03/20 05:34:48;;;;;;;;;;;;;;;4.24;100.00;95975.34;10493985;28;2600;-68
2024/03/20 05:39:49;;;;;;;;;;;;;;;4.36;100.00;95971.88;10498231;28;2809;-68
2024/03/20 05:44:51;;;;;;;;;;;;;;;4.53;100.00;95976.31;10495001;28;2754;-69
2024/03/20 05:49:52;;;;;;;;;;;;;;;4.66;100.00;95972.63;10503815;28;2624;-68
2024/03/20 05:54:56;;;;;;;;;;;;;;;4.81;100.00;95985.47;10494482;28;2798;-68
2024/03/20 05:59:58;;;;;;;;;;;;;;;4.91;100.00;95988.38;10493970;28;2931;-68
2024/03/20 06:04:59;;;;;;;;;;;;;;;5.12;100.00;95986.94;10492082;28;2894;-68
2024/03/20 06:10:01;;;;;;;;;;;;;;;5.36;100.00;95985.88;10499950;28;2786;-69
2024/03/20 06:15:03;;;;;;;;;;;;;;;5.55;100.00;95991.03;10493032;28;2845;-69
2024/03/20 06:20:06;;;;;;;;;;;;;;;5.70;100.00;95994.00;10497196;28;2928;-69
2024/03/20 06:25:07;;;;;;;;;;;;;;;5.98;100.00;95987.91;10494688;28;2919;-68
2024/03/20 06:30:11;;;;;;;;;;;;;;;6.29;100.00;95983.88;10496868;28;2790;-69
2024/03/20 06:35:13;;;;;;;;;;;;;;;6.50;100.00;95980.53;10502906;28;2890;-68
2024/03/20 06:40:14;;;;;;;;;;;;;;;6.65;100.00;95985.28;10479462;28;2921;-69
2024/03/20 06:45:16;;;;;;;;;;;;;;;6.93;100.00;95988.91;10501613;28;2797;-68
2024/03/20 06:50:17;;;;;;;;;;;;;;;7.02;100.00;95985.59;10501562;28;2882;-68
2024/03/20 06:55:19;;;;;;;;;;;;;;;7.19;100.00;95990.91;10504223;28;2999;-69
2024/03/20 07:00:21;;;;;;;;;;;;;;;7.57;100.00;95981.19;10507526;28;2733;-66
2024/03/20 07:05:27;;;;;;;;;;;;;;;7.81;100.00;95987.09;10504809;28;2893;-70
2024/03/20 07:10:28;;;;;;;;;;;;;;;7.89;100.00;95983.16;10499359;28;2809;-67
2024/03/20 07:15:32;;;;;;;;;;;;;;;8.00;100.00;95980.34;10500419;28;2726;-68
2024/03/20 07:20:33;;;;;;;;;;;;;;;8.22;100.00;95987.53;10505168;28;2782;-67
2024/03/20 07:25:35;;;;;;;;;;;;;;;8.37;100.00;95990.38;10489047;28;2796;-68
2024/03/20 07:30:37;;;;;;;;;;;;;;;8.45;100.00;96000.63;10499610;28;2819;-69
2024/03/20 07:35:39;;;;;;;;;;;;;;;8.80;100.00;96004.69;10494121;28;2917;-72
2024/03/20 07:40:41;;;;;;;;;;;;;;;8.82;100.00;96003.34;10493749;28;2654;-69
2024/03/20 07:45:42;;;;;;;;;;;;;;;9.23;100.00;96008.22;10491959;28;2932;-72
2024/03/20 07:50:44;;;;;;;;;;;;;;;9.16;100.00;96008.41;10487673;28;2833;-71
2024/03/20 07:55:48;;;;;;;;;;;;;;;9.25;100.00;96006.06;10494145;28;2820;-70
2024/03/20 08:00:50;;;;;;;;;;;;;;;9.56;100.00;95999.81;10488740;28;2792;-71
2024/03/20 08:05:51;;;;;;;;;;;;;;;9.74;100.00;96010.09;10487861;28;2734;-74
2024/03/20 08:10:53;;;;;;;;;;;;;;;10.16;100.00;96011.03;10485405;28;2769;-71
2024/03/20 08:15:54;;;;;;;;;;;;;;;10.22;100.00;96005.41;10485590;28;2839;-70
2024/03/20 08:20:56;;;;;;;;;;;;;;;10.51;100.00;96015.69;10487461;28;2754;-71
2024/03/20 08:25:58;;;;;;;;;;;;;;;10.79;100.00;96017.88;10486151;28;2860;-69
2024/03/20 08:31:00;;;;;;;;;;;;;;;10.79;100.00;96014.38;10489888;28;2777;-73
2024/03/20 08:36:07;;;;;;;;;;;;;;;11.07;100.00;96010.34;10489349;28;2899;-71
2024/03/20 08:41:10;;;;;;;;;;;;;;;10.98;100.00;96003.88;10492713;28;2825;-70
2024/03/20 08:46:14;;;;;;;;;;;;;;;10.98;100.00;96004.69;10487554;28;2909;-72
2024/03/20 08:51:17;;;;;;;;;;;;;;;11.10;100.00;95999.03;10497196;28;2870;-69
2024/03/20 08:56:18;;;;;;;;;;;;;;;11.33;100.00;95993.06;10471209;28;2797;-70
2024/03/20 09:01:20;;;;;;;;;;;;;;;11.59;100.00;95991.13;10495396;28;2801;-70
2024/03/20 09:06:22;;;;;;;;;;;;;;;11.80;100.00;95991.03;10493969;28;2926;-70
2024/03/20 09:11:23;;;;;;;;;;;;;;;11.81;100.00;95985.41;10492017;28;2832;-70
2024/03/20 09:16:25;;;;;;;;;;;;;;;11.91;100.00;95981.88;10494825;28;2827;-70
2024/03/20 09:21:27;;;;;;;;;;;;;;;12.23;100.00;95978.72;10495086;28;2913;-72
2024/03/20 09:26:29;;;;;;;;;;;;;;;12.26;100.00;95977.34;10493691;28;2911;-70
2024/03/20 09:31:30;;;;;;;;;;;;;;;12.98;100.00;95971.16;10490313;28;2826;-70
2024/03/20 09:36:32;;;;;;;;;;;;;;;13.19;100.00;95979.88;10492698;28;2785;-72
2024/03/20 09:41:35;;;;;;;;;;;;;;;13.31;100.00;95971.41;10491995;28;2884;-69
2024/03/20 09:46:37;;;;;;;;;;;;;;;13.32;100.00;95977.63;10496360;28;2833;-71
2024/03/20 09:51:39;;;;;;;;;;;;;;;13.30;100.00;95974.41;10503767;28;2776;-72
2024/03/20 09:56:40;;;;;;;;;;;;;;;13.16;100.00;95963.41;10488922;28;2752;-71
2024/03/20 10:01:42;;;;;;;;;;;;;;;12.74;100.00;95956.81;10495288;28;2916;-72
2024/03/20 10:06:43;;;;;;;;;;;;;;;13.18;100.00;95958.56;10491254;28;2943;-72
2024/03/20 10:11:45;;;;;;;;;;;;;;;13.50;100.00;95953.38;10489591;28;2806;-72
2024/03/20 10:16:48;;;;;;;;;;;;;;;13.72;100.00;95952.84;10491663;28;2947;-70
2024/03/20 10:21:49;;;;;;;;;;;;;;;13.94;100.00;95952.31;10493939;28;2792;-71
2024/03/20 10:26:51;;;;;;;;;;;;;;;14.16;100.00;95953.63;10492754;28;2884;-70
2024/03/20 10:31:53;;;;;;;;;;;;;;;13.92;100.00;95954.47;10498752;28;2894;-69
2024/03/20 10:36:55;;;;;;;;;;;;;;;13.95;100.00;95943.09;10495681;28;2820;-72
2024/03/20 10:41:57;;;;;;;;;;;;;;;14.06;100.00;95950.00;10495190;28;2848;-71
2024/03/20 10:46:59;;;;;;;;;;;;;;;14.12;100.00;95941.78;10494095;28;2787;-72
2024/03/20 10:52:01;;;;;;;;;;;;;;;14.23;100.00;95937.84;10482533;28;2796;-70
2024/03/20 10:57:03;;;;;;;;;;;;;;;14.51;100.00;95934.22;10478837;28;2739;-70
2024/03/20 11:02:07;;;;;;;;;;;;;;;14.48;100.00;95929.38;10489886;28;2935;-69
2024/03/20 11:07:09;;;;;;;;;;;;;;;14.66;100.00;95929.66;10489860;28;2945;-71
2024/03/20 11:12:11;;;;;;;;;;;;;;;14.83;97.13;95925.31;10488827;28;2792;-72
2024/03/20 11:17:13;;;;;;;;;;;;;;;14.55;95.49;95923.59;10489728;28;2839;-71
2024/03/20 11:22:15;;;;;;;;;;;;;;;14.51;96.92;95923.41;10486377;28;2835;-70
2024/03/20 11:27:17;;;;;;;;;;;;;;;14.56;95.17;95925.22;10487057;28;2729;-73
2024/03/20 11:32:19;;;;;;;;;;;;;;;14.72;95.24;95928.47;10494813;28;2861;-71
2024/03/20 11:37:21;;;;;;;;;;;;;;;14.76;90.80;95919.50;10490169;28;2806;-72
2024/03/20 11:42:22;;;;;;;;;;;;;;;14.73;91.56;95913.84;10490981;28;2736;-69
2024/03/20 11:47:24;;;;;;;;;;;;;;;14.97;91.74;95905.59;10487084;28;2894;-69
2024/03/20 11:52:26;;;;;;;;;;;;;;;14.93;91.67;95905.38;10490131;28;2821;-68
2024/03/20 11:57:27;;;;;;;;;;;;;;;15.17;87.58;95901.72;10485802;28;2851;-70
2024/03/20 12:02:32;;;;;;;;;;;;;;;15.55;80.86;95900.41;10485833;28;2841;-70
2024/03/20 12:07:35;;;;;;;;;;;;;;;15.46;79.82;95899.53;10488552;28;2833;-72
2024/03/20 12:12:37;;;;;;;;;;;;;;;15.59;76.79;95898.72;10489326;28;2823;-77
2024/03/20 12:17:39;;;;;;;;;;;;;;;15.66;74.46;95891.03;10487847;28;2764;-71
2024/03/20 12:22:40;;;;;;;;;;;;;;;15.87;74.67;95887.88;10491608;28;2793;-75
2024/03/20 12:27:42;;;;;;;;;;;;;;;15.99;74.31;95880.00;10488073;28;2834;-71
2024/03/20 12:32:43;;;;;;;;;;;;;;;16.09;71.50;95881.69;10496393;28;2958;-71
2024/03/20 12:37:45;;;;;;;;;;;;;;;15.84;69.67;95877.63;10495892;28;2842;-71
2024/03/20 12:42:46;;;;;;;;;;;;;;;15.85;70.34;95890.88;10500361;28;2736;-69
2024/03/20 12:47:48;;;;;;;;;;;;;;;15.94;69.24;95885.53;10496613;28;2947;-71
2024/03/20 12:52:49;;;;;;;;;;;;;;;16.13;68.02;95882.69;10505150;28;2882;-71
2024/03/20 12:57:51;;;;;;;;;;;;;;;16.54;61.97;95870.84;10501630;28;2931;-71
2024/03/20 13:02:54;;;;;;;;;;;;;;;16.81;60.08;95875.41;10497878;28;2911;-71
2024/03/20 13:07:56;;;;;;;;;;;;;;;17.29;58.92;95873.53;10495838;28;2866;-70
2024/03/20 13:13:03;;;;;;;;;;;;;;;17.10;58.04;95870.25;10500204;28;2869;-72
2024/03/20 13:18:05;;;;;;;;;;;;;;;16.88;57.88;95864.91;10501476;28;3170;-71
2024/03/20 13:23:12;;;;;;;;;;;;;;;16.91;61.53;95861.53;10497997;28;2861;-70
2024/03/20 13:28:14;;;;;;;;;;;;;;;16.92;62.07;95865.84;10493936;28;2687;-72
2024/03/20 13:33:16;;;;;;;;;;;;;;;17.15;61.99;95861.97;10493375;28;2906;-70
2024/03/20 13:38:19;;;;;;;;;;;;;;;16.92;59.78;95860.41;10492271;28;2808;-72
2024/03/20 13:43:39;;;;;;;;;;;;;;;16.75;59.17;95855.72;10493606;28;2798;-71
2024/03/20 13:48:40;;;;;;;;;;;;;;;16.98;57.20;95856.47;10501778;28;2802;-71
2024/03/20 13:53:42;;;;;;;;;;;;;;;16.63;63.34;95850.81;10498132;28;2883;-72
2024/03/20 13:58:45;;;;;;;;;;;;;;;16.85;64.46;95857.34;10494324;28;3033;-70
2024/03/20 14:03:48;;;;;;;;;;;;;;;16.54;60.05;95857.28;10493242;28;2736;-71
2024/03/20 14:08:49;;;;;;;;;;;;;;;16.69;62.99;95854.22;10493166;28;2730;-69
2024/03/20 14:13:51;;;;;;;;;;;;;;;16.30;62.78;95854.91;10490386;28;2840;-70
2024/03/20 14:18:53;;;;;;;;;;;;;;;16.32;63.95;95855.41;10491054;28;2815;-76
2024/03/20 14:23:54;;;;;;;;;;;;;;;16.32;64.20;95855.41;10497559;28;2746;-69
2024/03/20 14:28:57;;;;;;;;;;;;;;;16.00;65.62;95853.69;10494773;28;2861;-69
2024/03/20 14:33:58;;;;;;;;;;;;;;;15.85;68.24;95846.72;10492283;28;2770;-68
2024/03/20 14:39:00;;;;;;;;;;;;;;;16.22;67.17;95837.44;10491329;28;2898;-71
2024/03/20 14:44:03;;;;;;;;;;;;;;;16.42;66.01;95836.16;10488583;28;2921;-70
2024/03/20 14:49:07;;;;;;;;;;;;;;;16.41;66.56;95831.81;10489880;28;2893;-68
2024/03/20 14:54:08;;;;;;;;;;;;;;;16.32;68.55;95833.69;10479520;28;2793;-67
2024/03/20 14:59:10;;;;;;;;;;;;;;;16.40;68.09;95822.09;10489958;28;2831;-69
2024/03/20 15:04:12;;;;;;;;;;;;;;;16.09;70.45;95833.66;10491551;28;2834;-69
2024/03/20 15:09:13;;;;;;;;;;;;;;;16.45;71.77;95824.69;10491230;28;2800;-72
2024/03/20 15:14:15;;;;;;;;;;;;;;;16.17;73.82;95816.69;10489732;28;2738;-70
2024/03/20 15:19:17;;;;;;;;;;;;;;;16.28;74.61;95816.41;10472135;28;2806;-70
2024/03/20 15:24:19;;;;;;;;;;;;;;;16.08;78.60;95818.50;10486367;28;2859;-69
2024/03/20 15:29:20;;;;;;;;;;;;;;;15.87;83.52;95830.94;10474591;28;2853;-69
2024/03/20 15:34:24;;;;;;;;;;;;;;;15.73;90.54;95830.97;10491198;28;2938;-71
2024/03/20 15:39:27;;;;;;;;;;;;;;;15.64;97.34;95825.47;10490910;28;2738;-70
2024/03/20 15:44:29;;;;;;;;;;;;;;;15.57;98.74;95827.75;10483951;28;2801;-71
2024/03/20 15:49:32;;;;;;;;;;;;;;;15.34;100.00;95828.81;10498920;28;2587;-70
2024/03/20 15:54:34;;;;;;;;;;;;;;;15.30;100.00;95825.09;10490380;28;2761;-70
2024/03/20 15:59:36;;;;;;;;;;;;;;;15.19;100.00;95820.97;10487225;28;2842;-70
2024/03/20 16:04:38;;;;;;;;;;;;;;;15.13;100.00;95826.50;10487823;28;2844;-70
2024/03/20 16:09:39;;;;;;;;;;;;;;;15.15;100.00;95826.22;10488276;28;2856;-71
2024/03/20 16:14:41;;;;;;;;;;;;;;;15.04;100.00;95830.22;10486321;28;2796;-70
2024/03/20 16:19:43;;;;;;;;;;;;;;;14.86;100.00;95837.31;10471168;28;2762;-71
2024/03/20 16:24:45;;;;;;;;;;;;;;;14.71;100.00;95843.00;10498130;28;2726;-70
2024/03/20 16:29:47;;;;;;;;;;;;;;;14.60;100.00;95836.97;10490687;28;2902;-70
2024/03/20 16:34:49;;;;;;;;;;;;;;;14.43;100.00;95842.88;10497359;28;2781;-71
2024/03/20 16:39:50;;;;;;;;;;;;;;;14.28;100.00;95841.25;10488084;28;2879;-70
2024/03/20 16:44:53;;;;;;;;;;;;;;;14.17;100.00;95847.09;10488387;28;2850;-69
2024/03/20 16:49:55;;;;;;;;;;;;;;;14.06;100.00;95847.28;10479146;28;2828;-67
2024/03/20 16:54:57;;;;;;;;;;;;;;;13.93;100.00;95858.81;10485630;28;2824;-69
2024/03/20 16:59:59;;;;;;;;;;;;;;;13.77;100.00;95852.81;10484276;28;2826;-69
2024/03/20 17:05:01;;;;;;;;;;;;;;;13.60;100.00;95855.22;10485769;28;2772;-70
2024/03/20 17:10:04;;;;;;;;;;;;;;;13.48;100.00;95858.31;10482643;28;2848;-71
2024/03/20 17:15:07;;;;;;;;;;;;;;;13.38;100.00;95858.47;10490915;28;2802;-69
2024/03/20 17:20:09;;;;;;;;;;;;;;;13.22;100.00;95862.44;10496377;28;2819;-69
2024/03/20 17:25:11;;;;;;;;;;;;;;;13.09;100.00;95869.31;10498006;28;2887;-69
2024/03/20 17:30:13;;;;;;;;;;;;;;;13.02;100.00;95868.03;10493155;28;3462;-69
2024/03/20 17:35:17;;;;;;;;;;;;;;;12.89;100.00;95873.03;10497668;28;2869;-67
2024/03/20 17:40:19;;;;;;;;;;;;;;;12.71;100.00;95873.75;10501051;28;2584;-67
2024/03/20 17:45:20;;;;;;;;;;;;;;;12.59;100.00;95876.00;10494036;28;2864;-68
2024/03/20 17:50:22;;;;;;;;;;;;;;;12.41;100.00;95878.34;10500370;28;2786;-68
2024/03/20 17:55:24;;;;;;;;;;;;;;;12.35;100.00;95878.66;10497875;28;2750;-70
2024/03/20 18:00:25;;;;;;;;;;;;;;;12.09;100.00;95876.16;10494681;28;2992;-68
2024/03/20 18:05:27;;;;;;;;;;;;;;;12.00;100.00;95887.78;10476458;28;2868;-70
2024/03/20 18:10:29;;;;;;;;;;;;;;;11.90;100.00;95885.97;10492255;28;2745;-71
2024/03/20 18:15:30;;;;;;;;;;;;;;;11.76;100.00;95887.63;10491817;28;2867;-70
2024/03/20 18:20:35;;;;;;;;;;;;;;;11.66;100.00;95888.50;10496816;28;2766;-69
2024/03/20 18:25:38;;;;;;;;;;;;;;;11.36;100.00;95894.81;10481404;28;2882;-70
2024/03/20 18:30:41;;;;;;;;;;;;;;;11.44;100.00;95901.50;10493987;28;2733;-70
2024/03/20 18:35:43;;;;;;;;;;;;;;;11.34;100.00;95900.47;10498052;28;2830;-69
2024/03/20 18:40:44;;;;;;;;;;;;;;;11.33;100.00;95901.56;10496212;28;2743;-69
2024/03/20 18:45:46;;;;;;;;;;;;;;;11.22;100.00;95904.56;10495909;28;2861;-73
2024/03/20 18:50:48;;;;;;;;;;;;;;;11.00;100.00;95915.63;10478999;28;2756;-69
2024/03/20 18:55:52;;;;;;;;;;;;;;;10.86;100.00;95911.91;10503192;28;2916;-72
2024/03/20 19:00:54;;;;;;;;;;;;;;;10.87;100.00;95917.00;10493647;28;2765;-74
2024/03/20 19:05:57;;;;;;;;;;;;;;;10.75;100.00;95911.94;10495626;28;2874;-73
2024/03/20 19:10:59;;;;;;;;;;;;;;;10.65;100.00;95920.00;10491337;28;2805;-75
2024/03/20 19:16:00;;;;;;;;;;;;;;;10.60;100.00;95921.88;10482366;28;2809;-70
2024/03/20 19:21:03;;;;;;;;;;;;;;;10.50;100.00;95925.41;10495635;28;2883;-68
2024/03/20 19:26:09;;;;;;;;;;;;;;;10.31;100.00;95927.81;10497667;28;2864;-71
2024/03/20 19:31:10;;;;;;;;;;;;;;;10.33;100.00;95932.91;10477547;28;2909;-72
2024/03/20 19:36:18;;;;;;;;;;;;;;;10.18;100.00;95923.75;10491716;28;2883;-74
2024/03/20 19:41:20;;;;;;;;;;;;;;;9.99;100.00;95936.88;10491334;28;2827;-69
2024/03/20 19:46:22;;;;;;;;;;;;;;;9.88;100.00;95940.59;10492707;28;2906;-70
2024/03/20 19:51:23;;;;;;;;;;;;;;;9.79;100.00;95942.16;10492787;28;2840;-69
2024/03/20 19:56:25;;;;;;;;;;;;;;;9.74;100.00;95942.97;10493742;28;2846;-69
2024/03/20 20:01:26;;;;;;;;;;;;;;;9.67;100.00;95947.78;10487466;28;2866;-68
2024/03/20 20:06:28;;;;;;;;;;;;;;;9.69;100.00;95944.84;10470378;28;2926;-69
2024/03/20 20:11:30;;;;;;;;;;;;;;;9.61;100.00;95935.41;10491692;28;3087;-74
2024/03/20 20:16:31;;;;;;;;;;;;;;;9.61;100.00;95946.16;10496877;28;2798;-68
2024/03/20 20:21:33;;;;;;;;;;;;;;;9.64;100.00;95937.56;10482390;28;2896;-69
2024/03/20 20:26:36;;;;;;;;;;;;;;;9.61;100.00;95943.47;10500752;28;2893;-68
2024/03/20 20:31:39;;;;;;;;;;;;;;;9.57;100.00;95942.38;10500910;28;2805;-70
2024/03/20 20:36:42;;;;;;;;;;;;;;;9.52;100.00;95947.72;10490974;28;2914;-68
2024/03/20 20:41:47;;;;;;;;;;;;;;;9.51;100.00;95946.09;10493080;28;2858;-67
2024/03/20 20:46:49;;;;;;;;;;;;;;;9.42;100.00;95942.31;10495403;28;2952;-67
2024/03/20 20:51:51;;;;;;;;;;;;;;;9.44;100.00;95940.19;10497294;28;2800;-69
2024/03/20 20:56:54;;;;;;;;;;;;;;;9.65;100.00;95941.06;10507369;28;2792;-68
2024/03/20 21:23:13;;;;;;;;;;;;;;;9.34;100.00;95950.84;10498815;28;2949;-68
2024/03/20 21:28:14;;;;;;;;;;;;;;;9.42;100.00;95953.84;10499573;28;2811;-69
2024/03/20 21:33:16;;;;;;;;;;;;;;;9.48;100.00;95960.88;10498361;28;2852;-67
2024/03/20 21:38:18;;;;;;;;;;;;;;;9.50;100.00;95960.59;10498568;28;2648;-69
2024/03/20 21:43:19;;;;;;;;;;;;;;;9.28;100.00;95952.69;10504179;28;2876;-69
2024/03/20 21:48:21;;;;;;;;;;;;;;;9.09;100.00;95960.38;10502126;28;3094;-67
2024/03/20 21:53:22;;;;;;;;;;;;;;;9.12;100.00;95961.75;10502121;28;2783;-68
2024/03/20 21:58:24;;;;;;;;;;;;;;;9.05;100.00;95966.53;10508647;28;2378;-68
2024/03/20 22:03:26;;;;;;;;;;;;;;;9.11;100.00;95982.38;10500254;28;2710;-68
2024/03/20 22:08:27;;;;;;;;;;;;;;;9.09;100.00;95976.47;10493737;28;2897;-74
2024/03/20 22:13:31;;;;;;;;;;;;;;;9.10;100.00;95975.41;10500535;28;2831;-71
2024/03/20 22:18:34;;;;;;;;;;;;;;;8.96;100.00;95981.47;10500951;28;2908;-72
2024/03/20 22:23:36;;;;;;;;;;;;;;;8.86;100.00;95985.72;10498706;28;2751;-73
2024/03/20 22:28:38;;;;;;;;;;;;;;;8.75;100.00;95991.25;10495884;28;2816;-68
2024/03/20 22:33:40;;;;;;;;;;;;;;;8.62;100.00;95982.56;10496086;28;2873;-68
2024/03/20 22:38:42;;;;;;;;;;;;;;;8.52;100.00;95987.84;10502842;28;2798;-68
2024/03/20 22:43:44;;;;;;;;;;;;;;;8.44;100.00;95984.81;10497326;28;2811;-70
2024/03/20 22:48:46;;;;;;;;;;;;;;;8.40;100.00;96000.63;10495256;28;2876;-67
2024/03/20 22:53:47;;;;;;;;;;;;;;;8.33;100.00;96008.00;10501815;28;2869;-68
2024/03/20 22:58:49;;;;;;;;;;;;;;;8.32;100.00;96014.41;10491926;28;2870;-67
2024/03/20 23:03:50;;;;;;;;;;;;;;;8.27;100.00;96000.97;10492968;28;2877;-65
2024/03/20 23:08:54;;;;;;;;;;;;;;;8.30;100.00;96001.28;10494110;28;2800;-67
2024/03/20 23:13:55;;;;;;;;;;;;;;;8.40;100.00;95989.91;10492913;28;2903;-67
2024/03/20 23:18:58;;;;;;;;;;;;;;;8.33;100.00;95989.25;10492588;28;2855;-69
2024/03/20 23:24:03;;;;;;;;;;;;;;;8.39;100.00;95988.25;10493328;28;2749;-66
2024/03/20 23:29:06;;;;;;;;;;;;;;;8.37;100.00;95995.75;10494222;28;2801;-68
2024/03/20 23:34:07;;;;;;;;;;;;;;;8.24;100.00;96001.47;10492823;28;2754;-69
2024/03/20 23:39:13;;;;;;;;;;;;;;;8.13;100.00;96004.03;10494837;28;2859;-67
2024/03/20 23:44:14;;;;;;;;;;;;;;;8.10;100.00;95991.19;10494364;28;2890;-67
2024/03/20 23:49:16;;;;;;;;;;;;;;;8.00;100.00;95984.91;10493462;28;2653;-69
2024/03/20 23:54:17;;;;;;;;;;;;;;;7.93;100.00;96001.16;10493428;28;2560;-67
2024/03/20 23:59:18;;;;;;;;;;;;;;;7.87;100.00;96007.50;10495449;28;2898;-71
